sensor_id;sensor_type;location;lat;lon;timestamp;temperature;humidity
8662;DHT22;29684;47.722;9.388;2023-01-16T00:01:55;2.30;99.90
8662;DHT22;29684;47.722;9.388;2023-01-16T00:04:39;2.30;99.90
8662;DHT22;29684;47.722;9.388;2023-01-16T00:07:24;2.30;99.90
8662;DHT22;29684;47.722;9.388;2023-01-16T00:10:08;2.30;99.90
8662;DHT22;29684;47.722;9.388;2023-01-16T00:12:53;2.30;99.90
8662;DHT22;29684;47.722;9.388;2023-01-16T00:15:37;2.30;99.90
8662;DHT22;29684;47.722;9.388;2023-01-16T00:18:21;2.30;99.90
8662;DHT22;29684;47.722;9.388;2023-01-16T00:21:05;2.50;99.90
8662;DHT22;29684;47.722;9.388;2023-01-16T00:23:49;2.50;99.90
8662;DHT22;29684;47.722;9.388;2023-01-16T00:26:33;2.60;99.90
8662;DHT22;29684;47.722;9.388;2023-01-16T00:29:18;2.50;99.90
8662;DHT22;29684;47.722;9.388;2023-01-16T00:32:02;2.40;99.90
8662;DHT22;29684;47.722;9.388;2023-01-16T00:34:46;2.30;99.90
8662;DHT22;29684;47.722;9.388;2023-01-16T00:37:30;2.30;99.90
8662;DHT22;29684;47.722;9.388;2023-01-16T00:40:14;2.30;99.90
8662;DHT22;29684;47.722;9.388;2023-01-16T00:42:59;2.50;99.90
8662;DHT22;29684;47.722;9.388;2023-01-16T00:45:43;2.50;99.90
8662;DHT22;29684;47.722;9.388;2023-01-16T00:48:27;2.40;99.90
8662;DHT22;29684;47.722;9.388;2023-01-16T00:51:11;2.20;99.90
8662;DHT22;29684;47.722;9.388;2023-01-16T00:53:55;2.20;99.90
8662;DHT22;29684;47.722;9.388;2023-01-16T00:56:39;2.10;99.90
8662;DHT22;29684;47.722;9.388;2023-01-16T00:59:23;2.00;99.90
8662;DHT22;29684;47.722;9.388;2023-01-16T01:02:07;2.00;99.90
8662;DHT22;29684;47.722;9.388;2023-01-16T01:04:51;2.00;99.90
8662;DHT22;29684;47.722;9.388;2023-01-16T01:07:35;1.90;99.90
8662;DHT22;29684;47.722;9.388;2023-01-16T01:10:19;1.80;99.90
8662;DHT22;29684;47.722;9.388;2023-01-16T01:13:04;1.80;99.90
8662;DHT22;29684;47.722;9.388;2023-01-16T01:15:48;1.90;99.90
8662;DHT22;29684;47.722;9.388;2023-01-16T01:18:32;1.60;99.90
8662;DHT22;29684;47.722;9.388;2023-01-16T01:21:17;1.90;99.90
8662;DHT22;29684;47.722;9.388;2023-01-16T01:24:01;1.90;99.90
8662;DHT22;29684;47.722;9.388;2023-01-16T01:26:45;1.80;99.90
8662;DHT22;29684;47.722;9.388;2023-01-16T01:29:30;1.80;99.90
8662;DHT22;29684;47.722;9.388;2023-01-16T01:32:14;1.80;99.90
8662;DHT22;29684;47.722;9.388;2023-01-16T01:34:58;1.70;99.90
8662;DHT22;29684;47.722;9.388;2023-01-16T01:37:42;1.70;99.90
8662;DHT22;29684;47.722;9.388;2023-01-16T01:40:26;1.80;99.90
8662;DHT22;29684;47.722;9.388;2023-01-16T01:43:14;1.80;99.90
8662;DHT22;29684;47.722;9.388;2023-01-16T01:45:59;1.80;99.90
8662;DHT22;29684;47.722;9.388;2023-01-16T01:48:43;1.60;99.90
8662;DHT22;29684;47.722;9.388;2023-01-16T01:51:32;1.60;99.90
8662;DHT22;29684;47.722;9.388;2023-01-16T01:54:30;1.50;99.90
8662;DHT22;29684;47.722;9.388;2023-01-16T01:57:26;1.50;99.90
8662;DHT22;29684;47.722;9.388;2023-01-16T02:00:15;1.40;99.90
8662;DHT22;29684;47.722;9.388;2023-01-16T02:05:46;1.40;99.90
8662;DHT22;29684;47.722;9.388;2023-01-16T02:08:34;1.40;99.90
8662;DHT22;29684;47.722;9.388;2023-01-16T02:11:23;1.40;99.90
8662;DHT22;29684;47.722;9.388;2023-01-16T02:14:13;1.30;99.90
8662;DHT22;29684;47.722;9.388;2023-01-16T02:17:06;1.30;99.90
8662;DHT22;29684;47.722;9.388;2023-01-16T02:35:59;0.80;99.90
8662;DHT22;29684;47.722;9.388;2023-01-16T02:39:03;0.80;99.90
8662;DHT22;29684;47.722;9.388;2023-01-16T02:45:02;0.70;99.90
8662;DHT22;29684;47.722;9.388;2023-01-16T02:50:57;0.60;99.90
8662;DHT22;29684;47.722;9.388;2023-01-16T02:53:51;0.50;99.90
8662;DHT22;29684;47.722;9.388;2023-01-16T03:00:09;0.50;99.90
8662;DHT22;29684;47.722;9.388;2023-01-16T03:02:53;0.50;99.90
8662;DHT22;29684;47.722;9.388;2023-01-16T03:05:43;0.40;99.90
8662;DHT22;29684;47.722;9.388;2023-01-16T03:08:38;0.50;99.90
8662;DHT22;29684;47.722;9.388;2023-01-16T03:11:28;0.50;99.90
8662;DHT22;29684;47.722;9.388;2023-01-16T03:14:22;0.40;99.90
8662;DHT22;29684;47.722;9.388;2023-01-16T03:23:53;0.30;99.90
8662;DHT22;29684;47.722;9.388;2023-01-16T03:26:48;0.30;99.90
8662;DHT22;29684;47.722;9.388;2023-01-16T03:32:52;0.30;99.90
8662;DHT22;29684;47.722;9.388;2023-01-16T03:35:44;0.20;99.90
8662;DHT22;29684;47.722;9.388;2023-01-16T03:38:31;0.20;99.90
8662;DHT22;29684;47.722;9.388;2023-01-16T03:41:20;0.20;99.90
8662;DHT22;29684;47.722;9.388;2023-01-16T03:44:16;0.30;99.90
8662;DHT22;29684;47.722;9.388;2023-01-16T03:47:02;0.30;99.90
8662;DHT22;29684;47.722;9.388;2023-01-16T03:49:51;0.30;99.90
8662;DHT22;29684;47.722;9.388;2023-01-16T03:52:41;0.30;99.90
8662;DHT22;29684;47.722;9.388;2023-01-16T03:55:39;0.30;99.90
8662;DHT22;29684;47.722;9.388;2023-01-16T03:58:31;0.20;99.90
8662;DHT22;29684;47.722;9.388;2023-01-16T04:01:36;0.20;99.90
8662;DHT22;29684;47.722;9.388;2023-01-16T04:04:41;0.20;99.90
8662;DHT22;29684;47.722;9.388;2023-01-16T04:07:39;0.30;99.90
8662;DHT22;29684;47.722;9.388;2023-01-16T04:10:36;0.40;99.90
8662;DHT22;29684;47.722;9.388;2023-01-16T04:13:29;0.40;99.90
8662;DHT22;29684;47.722;9.388;2023-01-16T04:16:14;0.40;99.90
8662;DHT22;29684;47.722;9.388;2023-01-16T04:19:02;0.40;99.90
8662;DHT22;29684;47.722;9.388;2023-01-16T04:21:47;0.40;99.90
8662;DHT22;29684;47.722;9.388;2023-01-16T04:24:32;0.40;99.90
8662;DHT22;29684;47.722;9.388;2023-01-16T04:27:18;0.40;99.90
8662;DHT22;29684;47.722;9.388;2023-01-16T04:30:03;0.40;99.90
8662;DHT22;29684;47.722;9.388;2023-01-16T04:32:47;0.40;99.90
8662;DHT22;29684;47.722;9.388;2023-01-16T04:35:32;0.40;99.90
8662;DHT22;29684;47.722;9.388;2023-01-16T04:38:17;0.40;99.90
8662;DHT22;29684;47.722;9.388;2023-01-16T04:41:01;0.40;99.90
8662;DHT22;29684;47.722;9.388;2023-01-16T04:43:45;0.40;99.90
8662;DHT22;29684;47.722;9.388;2023-01-16T04:46:29;0.50;99.90
8662;DHT22;29684;47.722;9.388;2023-01-16T04:49:13;0.50;99.90
8662;DHT22;29684;47.722;9.388;2023-01-16T04:51:57;0.50;99.90
8662;DHT22;29684;47.722;9.388;2023-01-16T04:54:42;0.50;99.90
8662;DHT22;29684;47.722;9.388;2023-01-16T04:57:26;0.40;99.90
8662;DHT22;29684;47.722;9.388;2023-01-16T05:00:11;0.50;99.90
8662;DHT22;29684;47.722;9.388;2023-01-16T05:02:56;0.50;99.90
8662;DHT22;29684;47.722;9.388;2023-01-16T05:05:39;0.50;99.90
8662;DHT22;29684;47.722;9.388;2023-01-16T05:08:24;0.60;99.90
8662;DHT22;29684;47.722;9.388;2023-01-16T05:11:11;0.70;99.90
8662;DHT22;29684;47.722;9.388;2023-01-16T05:13:55;0.70;99.90
8662;DHT22;29684;47.722;9.388;2023-01-16T05:16:40;0.70;99.90
8662;DHT22;29684;47.722;9.388;2023-01-16T05:19:25;0.80;99.90
8662;DHT22;29684;47.722;9.388;2023-01-16T05:22:09;0.80;99.90
8662;DHT22;29684;47.722;9.388;2023-01-16T05:24:53;0.80;99.90
8662;DHT22;29684;47.722;9.388;2023-01-16T05:27:37;0.80;99.90
8662;DHT22;29684;47.722;9.388;2023-01-16T05:30:21;0.80;99.90
8662;DHT22;29684;47.722;9.388;2023-01-16T05:33:06;0.80;99.90
8662;DHT22;29684;47.722;9.388;2023-01-16T05:35:50;0.80;99.90
8662;DHT22;29684;47.722;9.388;2023-01-16T05:38:35;0.80;99.90
8662;DHT22;29684;47.722;9.388;2023-01-16T05:41:19;0.80;99.90
8662;DHT22;29684;47.722;9.388;2023-01-16T05:44:03;0.60;99.90
8662;DHT22;29684;47.722;9.388;2023-01-16T05:46:47;0.80;99.90
8662;DHT22;29684;47.722;9.388;2023-01-16T05:49:31;0.80;99.90
8662;DHT22;29684;47.722;9.388;2023-01-16T05:52:15;0.70;99.90
8662;DHT22;29684;47.722;9.388;2023-01-16T05:54:59;0.70;99.90
8662;DHT22;29684;47.722;9.388;2023-01-16T05:57:43;0.70;99.90
8662;DHT22;29684;47.722;9.388;2023-01-16T06:00:27;0.70;99.90
8662;DHT22;29684;47.722;9.388;2023-01-16T06:03:11;0.70;99.90
8662;DHT22;29684;47.722;9.388;2023-01-16T06:05:55;0.60;99.90
8662;DHT22;29684;47.722;9.388;2023-01-16T06:08:39;0.50;99.90
8662;DHT22;29684;47.722;9.388;2023-01-16T06:11:23;0.50;99.90
8662;DHT22;29684;47.722;9.388;2023-01-16T06:14:07;0.50;99.90
8662;DHT22;29684;47.722;9.388;2023-01-16T06:16:52;0.50;99.90
8662;DHT22;29684;47.722;9.388;2023-01-16T06:19:36;0.50;99.90
8662;DHT22;29684;47.722;9.388;2023-01-16T06:22:20;0.50;99.90
8662;DHT22;29684;47.722;9.388;2023-01-16T06:25:05;0.50;99.90
8662;DHT22;29684;47.722;9.388;2023-01-16T06:27:50;0.60;99.90
8662;DHT22;29684;47.722;9.388;2023-01-16T06:30:35;0.60;99.90
8662;DHT22;29684;47.722;9.388;2023-01-16T06:33:19;0.70;99.90
8662;DHT22;29684;47.722;9.388;2023-01-16T06:36:04;0.80;99.90
8662;DHT22;29684;47.722;9.388;2023-01-16T06:38:48;0.80;99.90
8662;DHT22;29684;47.722;9.388;2023-01-16T06:41:33;0.90;99.90
8662;DHT22;29684;47.722;9.388;2023-01-16T06:44:17;0.80;99.90
8662;DHT22;29684;47.722;9.388;2023-01-16T06:47:01;0.70;99.90
8662;DHT22;29684;47.722;9.388;2023-01-16T06:49:46;1.00;99.90
8662;DHT22;29684;47.722;9.388;2023-01-16T06:52:30;1.10;99.90
8662;DHT22;29684;47.722;9.388;2023-01-16T06:55:14;1.10;99.90
8662;DHT22;29684;47.722;9.388;2023-01-16T06:57:58;1.10;99.90
8662;DHT22;29684;47.722;9.388;2023-01-16T07:00:42;1.10;99.90
8662;DHT22;29684;47.722;9.388;2023-01-16T07:03:26;1.10;99.90
8662;DHT22;29684;47.722;9.388;2023-01-16T07:06:10;1.20;99.90
8662;DHT22;29684;47.722;9.388;2023-01-16T07:08:56;1.30;99.90
8662;DHT22;29684;47.722;9.388;2023-01-16T07:11:40;1.40;99.90
8662;DHT22;29684;47.722;9.388;2023-01-16T07:14:24;1.40;99.90
8662;DHT22;29684;47.722;9.388;2023-01-16T07:17:27;1.50;99.90
8662;DHT22;29684;47.722;9.388;2023-01-16T07:20:31;1.50;99.90
8662;DHT22;29684;47.722;9.388;2023-01-16T07:23:34;2.00;99.90
8662;DHT22;29684;47.722;9.388;2023-01-16T07:26:18;1.50;99.90
8662;DHT22;29684;47.722;9.388;2023-01-16T07:29:04;1.50;99.90
8662;DHT22;29684;47.722;9.388;2023-01-16T07:31:48;1.60;99.90
8662;DHT22;29684;47.722;9.388;2023-01-16T07:34:33;1.70;99.90
8662;DHT22;29684;47.722;9.388;2023-01-16T07:37:19;1.70;99.90
8662;DHT22;29684;47.722;9.388;2023-01-16T07:40:03;1.70;99.90
8662;DHT22;29684;47.722;9.388;2023-01-16T07:42:49;1.70;99.90
8662;DHT22;29684;47.722;9.388;2023-01-16T07:45:34;1.80;99.90
8662;DHT22;29684;47.722;9.388;2023-01-16T07:48:20;1.80;99.90
8662;DHT22;29684;47.722;9.388;2023-01-16T07:51:04;1.90;99.90
8662;DHT22;29684;47.722;9.388;2023-01-16T07:53:48;2.10;99.90
8662;DHT22;29684;47.722;9.388;2023-01-16T07:56:33;2.10;99.90
8662;DHT22;29684;47.722;9.388;2023-01-16T07:59:17;2.00;99.90
8662;DHT22;29684;47.722;9.388;2023-01-16T08:02:01;2.10;99.90
8662;DHT22;29684;47.722;9.388;2023-01-16T08:04:45;2.10;99.90
8662;DHT22;29684;47.722;9.388;2023-01-16T08:07:30;2.10;99.90
8662;DHT22;29684;47.722;9.388;2023-01-16T08:10:14;2.10;99.90
8662;DHT22;29684;47.722;9.388;2023-01-16T08:13:04;2.10;99.90
8662;DHT22;29684;47.722;9.388;2023-01-16T08:15:48;2.10;99.90
8662;DHT22;29684;47.722;9.388;2023-01-16T08:18:34;2.20;99.90
8662;DHT22;29684;47.722;9.388;2023-01-16T08:21:18;2.20;99.90
8662;DHT22;29684;47.722;9.388;2023-01-16T08:24:02;2.30;99.90
8662;DHT22;29684;47.722;9.388;2023-01-16T08:26:47;2.40;99.90
8662;DHT22;29684;47.722;9.388;2023-01-16T08:29:31;2.50;99.90
8662;DHT22;29684;47.722;9.388;2023-01-16T08:32:15;2.60;99.90
8662;DHT22;29684;47.722;9.388;2023-01-16T08:34:59;2.70;99.90
8662;DHT22;29684;47.722;9.388;2023-01-16T08:37:49;2.80;99.90
8662;DHT22;29684;47.722;9.388;2023-01-16T08:40:34;2.90;99.90
8662;DHT22;29684;47.722;9.388;2023-01-16T08:43:18;2.80;99.90
8662;DHT22;29684;47.722;9.388;2023-01-16T08:46:22;2.80;99.90
8662;DHT22;29684;47.722;9.388;2023-01-16T08:49:26;2.80;99.90
8662;DHT22;29684;47.722;9.388;2023-01-16T08:52:30;2.90;99.90
8662;DHT22;29684;47.722;9.388;2023-01-16T08:55:15;3.00;99.90
8662;DHT22;29684;47.722;9.388;2023-01-16T08:57:59;3.10;99.90
8662;DHT22;29684;47.722;9.388;2023-01-16T09:00:43;3.10;99.90
8662;DHT22;29684;47.722;9.388;2023-01-16T09:03:27;3.30;99.90
8662;DHT22;29684;47.722;9.388;2023-01-16T09:06:11;3.40;99.90
8662;DHT22;29684;47.722;9.388;2023-01-16T09:08:56;3.30;99.90
8662;DHT22;29684;47.722;9.388;2023-01-16T09:11:40;3.40;99.90
8662;DHT22;29684;47.722;9.388;2023-01-16T09:14:42;3.30;99.90
8662;DHT22;29684;47.722;9.388;2023-01-16T09:17:27;3.40;99.90
8662;DHT22;29684;47.722;9.388;2023-01-16T09:20:11;3.10;99.90
8662;DHT22;29684;47.722;9.388;2023-01-16T09:23:00;3.00;99.90
8662;DHT22;29684;47.722;9.388;2023-01-16T09:25:46;2.70;99.90
8662;DHT22;29684;47.722;9.388;2023-01-16T09:28:30;2.60;99.90
8662;DHT22;29684;47.722;9.388;2023-01-16T09:31:15;2.50;99.90
8662;DHT22;29684;47.722;9.388;2023-01-16T09:33:59;2.50;99.90
8662;DHT22;29684;47.722;9.388;2023-01-16T09:36:43;2.30;99.90
8662;DHT22;29684;47.722;9.388;2023-01-16T09:39:27;2.20;99.90
8662;DHT22;29684;47.722;9.388;2023-01-16T09:45:32;2.00;99.90
8662;DHT22;29684;47.722;9.388;2023-01-16T09:48:35;2.00;99.90
8662;DHT22;29684;47.722;9.388;2023-01-16T09:52:02;1.80;99.90
8662;DHT22;29684;47.722;9.388;2023-01-16T09:55:24;1.80;99.90
8662;DHT22;29684;47.722;9.388;2023-01-16T09:58:29;1.90;99.90
8662;DHT22;29684;47.722;9.388;2023-01-16T10:01:52;2.10;99.90
8662;DHT22;29684;47.722;9.388;2023-01-16T10:04:34;2.10;99.90
8662;DHT22;29684;47.722;9.388;2023-01-16T10:07:49;2.20;99.90
8662;DHT22;29684;47.722;9.388;2023-01-16T10:10:55;2.40;99.90
8662;DHT22;29684;47.722;9.388;2023-01-16T10:23:36;2.50;99.90
8662;DHT22;29684;47.722;9.388;2023-01-16T10:26:38;2.40;99.90
8662;DHT22;29684;47.722;9.388;2023-01-16T10:29:41;2.20;99.90
8662;DHT22;29684;47.722;9.388;2023-01-16T10:32:43;2.00;99.90
8662;DHT22;29684;47.722;9.388;2023-01-16T10:35:42;1.90;99.90
8662;DHT22;29684;47.722;9.388;2023-01-16T10:38:40;1.90;99.90
8662;DHT22;29684;47.722;9.388;2023-01-16T10:44:36;1.80;99.90
8662;DHT22;29684;47.722;9.388;2023-01-16T10:47:40;2.00;99.90
8662;DHT22;29684;47.722;9.388;2023-01-16T10:50:43;2.10;99.90
8662;DHT22;29684;47.722;9.388;2023-01-16T10:53:28;2.10;99.90
8662;DHT22;29684;47.722;9.388;2023-01-16T10:56:12;2.00;99.90
8662;DHT22;29684;47.722;9.388;2023-01-16T10:58:56;2.00;99.90
8662;DHT22;29684;47.722;9.388;2023-01-16T11:01:42;2.00;99.90
8662;DHT22;29684;47.722;9.388;2023-01-16T11:04:35;2.00;99.90
8662;DHT22;29684;47.722;9.388;2023-01-16T11:07:21;1.80;99.90
8662;DHT22;29684;47.722;9.388;2023-01-16T11:10:12;1.80;99.90
8662;DHT22;29684;47.722;9.388;2023-01-16T11:12:59;1.90;99.90
8662;DHT22;29684;47.722;9.388;2023-01-16T11:16:26;1.90;99.90
8662;DHT22;29684;47.722;9.388;2023-01-16T11:19:43;1.90;99.90
8662;DHT22;29684;47.722;9.388;2023-01-16T11:22:27;2.00;99.90
8662;DHT22;29684;47.722;9.388;2023-01-16T11:25:16;2.00;99.90
8662;DHT22;29684;47.722;9.388;2023-01-16T11:28:06;2.40;99.90
8662;DHT22;29684;47.722;9.388;2023-01-16T11:30:54;2.20;99.90
8662;DHT22;29684;47.722;9.388;2023-01-16T11:33:45;2.40;99.90
8662;DHT22;29684;47.722;9.388;2023-01-16T11:36:34;2.70;99.90
8662;DHT22;29684;47.722;9.388;2023-01-16T11:39:21;2.50;99.90
8662;DHT22;29684;47.722;9.388;2023-01-16T11:42:10;2.50;99.90
8662;DHT22;29684;47.722;9.388;2023-01-16T11:45:22;2.60;99.90
8662;DHT22;29684;47.722;9.388;2023-01-16T11:48:44;2.70;99.90
8662;DHT22;29684;47.722;9.388;2023-01-16T11:51:37;2.80;99.90
8662;DHT22;29684;47.722;9.388;2023-01-16T11:54:27;3.20;99.90
8662;DHT22;29684;47.722;9.388;2023-01-16T12:06:24;3.00;99.90
8662;DHT22;29684;47.722;9.388;2023-01-16T12:12:17;2.90;99.90
8662;DHT22;29684;47.722;9.388;2023-01-16T12:15:29;2.80;99.90
8662;DHT22;29684;47.722;9.388;2023-01-16T12:18:34;3.00;99.90
8662;DHT22;29684;47.722;9.388;2023-01-16T12:21:28;2.90;99.90
8662;DHT22;29684;47.722;9.388;2023-01-16T12:24:28;3.30;99.90
8662;DHT22;29684;47.722;9.388;2023-01-16T12:33:43;2.90;99.90
8662;DHT22;29684;47.722;9.388;2023-01-16T12:36:34;2.80;99.90
8662;DHT22;29684;47.722;9.388;2023-01-16T12:46:05;3.10;99.90
8662;DHT22;29684;47.722;9.388;2023-01-16T12:52:00;3.30;99.90
8662;DHT22;29684;47.722;9.388;2023-01-16T13:01:06;3.20;99.90
8662;DHT22;29684;47.722;9.388;2023-01-16T13:04:00;3.20;99.90
8662;DHT22;29684;47.722;9.388;2023-01-16T13:06:50;3.10;99.90
8662;DHT22;29684;47.722;9.388;2023-01-16T13:12:31;3.40;99.90
8662;DHT22;29684;47.722;9.388;2023-01-16T13:15:40;3.30;99.90
8662;DHT22;29684;47.722;9.388;2023-01-16T13:18:36;3.50;99.90
8662;DHT22;29684;47.722;9.388;2023-01-16T13:21:26;3.70;99.90
8662;DHT22;29684;47.722;9.388;2023-01-16T13:24:22;3.60;99.90
8662;DHT22;29684;47.722;9.388;2023-01-16T13:27:16;3.80;99.90
8662;DHT22;29684;47.722;9.388;2023-01-16T13:30:12;4.00;99.90
8662;DHT22;29684;47.722;9.388;2023-01-16T13:33:12;4.40;99.90
8662;DHT22;29684;47.722;9.388;2023-01-16T13:39:17;6.00;99.90
8662;DHT22;29684;47.722;9.388;2023-01-16T13:42:08;7.40;99.90
8662;DHT22;29684;47.722;9.388;2023-01-16T13:45:05;7.60;99.90
8662;DHT22;29684;47.722;9.388;2023-01-16T13:48:11;7.30;99.90
8662;DHT22;29684;47.722;9.388;2023-01-16T13:51:01;6.90;99.90
8662;DHT22;29684;47.722;9.388;2023-01-16T13:53:50;6.60;99.90
8662;DHT22;29684;47.722;9.388;2023-01-16T13:56:39;6.30;99.90
8662;DHT22;29684;47.722;9.388;2023-01-16T14:02:41;5.60;99.90
8662;DHT22;29684;47.722;9.388;2023-01-16T14:08:45;5.00;99.90
8662;DHT22;29684;47.722;9.388;2023-01-16T14:15:43;4.70;99.90
8662;DHT22;29684;47.722;9.388;2023-01-16T14:24:22;4.40;99.90
8662;DHT22;29684;47.722;9.388;2023-01-16T14:27:12;4.30;99.90
8662;DHT22;29684;47.722;9.388;2023-01-16T14:29:59;4.20;99.90
8662;DHT22;29684;47.722;9.388;2023-01-16T14:32:47;4.10;99.90
8662;DHT22;29684;47.722;9.388;2023-01-16T14:35:46;3.70;99.90
8662;DHT22;29684;47.722;9.388;2023-01-16T14:38:31;3.80;99.90
8662;DHT22;29684;47.722;9.388;2023-01-16T14:41:23;3.70;99.90
8662;DHT22;29684;47.722;9.388;2023-01-16T14:44:28;3.80;99.90
8662;DHT22;29684;47.722;9.388;2023-01-16T14:47:31;3.80;99.90
8662;DHT22;29684;47.722;9.388;2023-01-16T14:51:01;3.70;99.90
8662;DHT22;29684;47.722;9.388;2023-01-16T14:54:30;3.60;99.90
8662;DHT22;29684;47.722;9.388;2023-01-16T14:57:34;3.60;99.90
8662;DHT22;29684;47.722;9.388;2023-01-16T15:00:20;3.60;99.90
8662;DHT22;29684;47.722;9.388;2023-01-16T15:03:20;3.70;99.90
8662;DHT22;29684;47.722;9.388;2023-01-16T15:06:07;3.60;99.90
8662;DHT22;29684;47.722;9.388;2023-01-16T15:08:53;3.70;99.90
8662;DHT22;29684;47.722;9.388;2023-01-16T15:11:49;3.60;99.90
8662;DHT22;29684;47.722;9.388;2023-01-16T15:14:35;3.60;99.90
8662;DHT22;29684;47.722;9.388;2023-01-16T15:17:35;3.60;99.90
8662;DHT22;29684;47.722;9.388;2023-01-16T15:20:43;3.50;99.90
8662;DHT22;29684;47.722;9.388;2023-01-16T15:23:47;3.40;99.90
8662;DHT22;29684;47.722;9.388;2023-01-16T15:32:51;3.40;99.90
8662;DHT22;29684;47.722;9.388;2023-01-16T15:35:36;3.40;99.90
8662;DHT22;29684;47.722;9.388;2023-01-16T15:38:22;3.30;99.90
8662;DHT22;29684;47.722;9.388;2023-01-16T15:41:07;3.30;99.90
8662;DHT22;29684;47.722;9.388;2023-01-16T15:43:51;3.20;99.90
8662;DHT22;29684;47.722;9.388;2023-01-16T15:52:47;4.20;99.90
8662;DHT22;29684;47.722;9.388;2023-01-16T15:55:41;3.40;99.90
8662;DHT22;29684;47.722;9.388;2023-01-16T15:58:26;4.00;99.90
8662;DHT22;29684;47.722;9.388;2023-01-16T16:01:11;4.00;99.90
8662;DHT22;29684;47.722;9.388;2023-01-16T16:03:56;3.70;99.90
8662;DHT22;29684;47.722;9.388;2023-01-16T16:06:41;3.50;99.90
8662;DHT22;29684;47.722;9.388;2023-01-16T16:09:26;3.50;99.90
8662;DHT22;29684;47.722;9.388;2023-01-16T16:12:11;3.40;99.90
8662;DHT22;29684;47.722;9.388;2023-01-16T16:15:22;3.50;99.90
8662;DHT22;29684;47.722;9.388;2023-01-16T16:18:26;3.50;99.90
8662;DHT22;29684;47.722;9.388;2023-01-16T16:21:13;3.50;99.90
8662;DHT22;29684;47.722;9.388;2023-01-16T16:24:04;3.60;99.90
8662;DHT22;29684;47.722;9.388;2023-01-16T16:26:49;3.70;99.90
8662;DHT22;29684;47.722;9.388;2023-01-16T16:29:34;3.90;99.90
8662;DHT22;29684;47.722;9.388;2023-01-16T16:32:19;4.20;99.90
8662;DHT22;29684;47.722;9.388;2023-01-16T16:35:04;4.20;99.90
8662;DHT22;29684;47.722;9.388;2023-01-16T16:37:50;4.50;99.90
8662;DHT22;29684;47.722;9.388;2023-01-16T16:40:34;4.70;99.90
8662;DHT22;29684;47.722;9.388;2023-01-16T16:46:33;4.90;99.90
8662;DHT22;29684;47.722;9.388;2023-01-16T16:55:36;5.50;99.90
8662;DHT22;29684;47.722;9.388;2023-01-16T16:58:23;5.40;99.90
8662;DHT22;29684;47.722;9.388;2023-01-16T17:01:13;6.00;99.90
8662;DHT22;29684;47.722;9.388;2023-01-16T17:04:02;6.00;99.90
8662;DHT22;29684;47.722;9.388;2023-01-16T17:06:47;6.10;99.90
8662;DHT22;29684;47.722;9.388;2023-01-16T17:09:34;6.00;99.90
8662;DHT22;29684;47.722;9.388;2023-01-16T17:12:19;5.70;99.90
8662;DHT22;29684;47.722;9.388;2023-01-16T17:15:07;6.00;99.90
8662;DHT22;29684;47.722;9.388;2023-01-16T17:17:52;6.00;99.90
8662;DHT22;29684;47.722;9.388;2023-01-16T17:20:43;5.90;99.90
8662;DHT22;29684;47.722;9.388;2023-01-16T17:23:28;5.50;99.90
8662;DHT22;29684;47.722;9.388;2023-01-16T17:26:12;5.20;99.90
8662;DHT22;29684;47.722;9.388;2023-01-16T17:28:59;5.30;99.90
8662;DHT22;29684;47.722;9.388;2023-01-16T17:31:44;5.30;99.90
8662;DHT22;29684;47.722;9.388;2023-01-16T17:34:28;5.30;99.90
8662;DHT22;29684;47.722;9.388;2023-01-16T17:37:14;5.20;99.90
8662;DHT22;29684;47.722;9.388;2023-01-16T17:39:58;5.30;99.90
8662;DHT22;29684;47.722;9.388;2023-01-16T17:42:42;5.20;99.90
8662;DHT22;29684;47.722;9.388;2023-01-16T17:45:45;3.70;99.90
8662;DHT22;29684;47.722;9.388;2023-01-16T17:48:36;2.60;99.90
8662;DHT22;29684;47.722;9.388;2023-01-16T17:51:21;3.00;99.90
8662;DHT22;29684;47.722;9.388;2023-01-16T17:54:08;2.20;99.90
8662;DHT22;29684;47.722;9.388;2023-01-16T17:57:12;2.20;99.90
8662;DHT22;29684;47.722;9.388;2023-01-16T17:59:57;2.30;99.90
8662;DHT22;29684;47.722;9.388;2023-01-16T18:02:41;2.30;99.90
8662;DHT22;29684;47.722;9.388;2023-01-16T18:05:25;2.40;99.90
8662;DHT22;29684;47.722;9.388;2023-01-16T18:08:09;2.20;99.90
8662;DHT22;29684;47.722;9.388;2023-01-16T18:10:53;2.40;99.90
8662;DHT22;29684;47.722;9.388;2023-01-16T18:13:37;2.50;99.90
8662;DHT22;29684;47.722;9.388;2023-01-16T18:16:40;2.60;99.90
8662;DHT22;29684;47.722;9.388;2023-01-16T18:19:43;2.70;99.90
8662;DHT22;29684;47.722;9.388;2023-01-16T18:22:30;2.70;99.90
8662;DHT22;29684;47.722;9.388;2023-01-16T18:25:18;2.70;99.90
8662;DHT22;29684;47.722;9.388;2023-01-16T18:28:02;2.80;99.90
8662;DHT22;29684;47.722;9.388;2023-01-16T18:30:47;2.80;99.90
8662;DHT22;29684;47.722;9.388;2023-01-16T18:33:32;3.20;99.90
8662;DHT22;29684;47.722;9.388;2023-01-16T18:36:19;2.80;99.90
8662;DHT22;29684;47.722;9.388;2023-01-16T18:39:04;2.80;99.90
8662;DHT22;29684;47.722;9.388;2023-01-16T18:42:08;2.80;99.90
8662;DHT22;29684;47.722;9.388;2023-01-16T18:45:13;2.80;99.90
8662;DHT22;29684;47.722;9.388;2023-01-16T18:48:17;2.70;99.90
8662;DHT22;29684;47.722;9.388;2023-01-16T18:51:20;2.70;99.90
8662;DHT22;29684;47.722;9.388;2023-01-16T18:54:24;2.70;99.90
8662;DHT22;29684;47.722;9.388;2023-01-16T18:57:28;2.60;99.90
8662;DHT22;29684;47.722;9.388;2023-01-16T19:00:31;2.60;99.90
8662;DHT22;29684;47.722;9.388;2023-01-16T19:03:35;2.50;99.90
8662;DHT22;29684;47.722;9.388;2023-01-16T19:06:19;2.50;99.90
8662;DHT22;29684;47.722;9.388;2023-01-16T19:09:03;2.50;99.90
8662;DHT22;29684;47.722;9.388;2023-01-16T19:11:49;2.50;99.90
8662;DHT22;29684;47.722;9.388;2023-01-16T19:14:35;2.50;99.90
8662;DHT22;29684;47.722;9.388;2023-01-16T19:17:23;2.50;99.90
8662;DHT22;29684;47.722;9.388;2023-01-16T19:20:11;2.40;99.90
8662;DHT22;29684;47.722;9.388;2023-01-16T19:22:58;2.40;99.90
8662;DHT22;29684;47.722;9.388;2023-01-16T19:25:44;2.40;99.90
8662;DHT22;29684;47.722;9.388;2023-01-16T19:28:28;2.40;99.90
8662;DHT22;29684;47.722;9.388;2023-01-16T19:31:12;2.50;99.90
8662;DHT22;29684;47.722;9.388;2023-01-16T19:33:59;2.80;99.90
8662;DHT22;29684;47.722;9.388;2023-01-16T19:36:44;3.00;99.90
8662;DHT22;29684;47.722;9.388;2023-01-16T19:39:29;3.20;99.90
8662;DHT22;29684;47.722;9.388;2023-01-16T19:42:13;3.20;99.90
8662;DHT22;29684;47.722;9.388;2023-01-16T19:45:16;3.50;99.90
8662;DHT22;29684;47.722;9.388;2023-01-16T19:48:20;3.60;99.90
8662;DHT22;29684;47.722;9.388;2023-01-16T19:51:05;3.60;99.90
8662;DHT22;29684;47.722;9.388;2023-01-16T19:53:53;3.30;99.90
8662;DHT22;29684;47.722;9.388;2023-01-16T19:56:38;3.10;99.90
8662;DHT22;29684;47.722;9.388;2023-01-16T19:59:24;3.30;99.90
8662;DHT22;29684;47.722;9.388;2023-01-16T20:02:09;2.70;99.90
8662;DHT22;29684;47.722;9.388;2023-01-16T20:04:53;2.60;99.90
8662;DHT22;29684;47.722;9.388;2023-01-16T20:07:37;2.60;99.90
8662;DHT22;29684;47.722;9.388;2023-01-16T20:10:21;2.60;99.90
8662;DHT22;29684;47.722;9.388;2023-01-16T20:13:05;2.60;99.90
8662;DHT22;29684;47.722;9.388;2023-01-16T20:15:49;2.70;99.90
8662;DHT22;29684;47.722;9.388;2023-01-16T20:18:34;2.80;99.90
8662;DHT22;29684;47.722;9.388;2023-01-16T20:21:19;2.80;99.90
8662;DHT22;29684;47.722;9.388;2023-01-16T20:24:03;1.50;99.90
8662;DHT22;29684;47.722;9.388;2023-01-16T20:26:51;2.90;99.90
8662;DHT22;29684;47.722;9.388;2023-01-16T20:29:35;3.00;99.90
8662;DHT22;29684;47.722;9.388;2023-01-16T20:32:21;3.10;99.90
8662;DHT22;29684;47.722;9.388;2023-01-16T20:35:06;3.20;99.90
8662;DHT22;29684;47.722;9.388;2023-01-16T20:37:51;3.20;99.90
8662;DHT22;29684;47.722;9.388;2023-01-16T20:40:35;3.20;99.90